createdAt,value
2023-03-05T00:00:01.691Z,89.16
2023-03-05T00:02:31.750Z,88.92
2023-03-05T00:04:59.556Z,89.20
2023-03-05T00:07:29.451Z,89.25
2023-03-05T00:10:00.379Z,89.45
2023-03-05T00:12:28.169Z,89.56
2023-03-05T00:14:56.018Z,89.69
2023-03-05T00:17:25.176Z,89.38
2023-03-05T00:19:52.974Z,89.22
2023-03-05T00:22:20.670Z,88.88
2023-03-05T00:24:51.587Z,89.00
2023-03-05T00:27:19.569Z,89.05
2023-03-05T00:29:47.344Z,88.75
2023-03-05T00:32:15.206Z,88.75
2023-03-05T00:34:44.398Z,88.78
2023-03-05T00:37:12.185Z,88.78
2023-03-05T00:39:39.942Z,88.75
2023-03-05T00:42:08.410Z,88.66
2023-03-05T00:44:36.606Z,88.20
2023-03-05T00:47:05.154Z,88.41
2023-03-05T00:49:33.048Z,87.80
2023-03-05T00:52:02.151Z,87.86
2023-03-05T00:54:29.877Z,88.07
2023-03-05T00:56:57.684Z,88.05
2023-03-05T00:59:25.440Z,87.85
2023-03-05T01:01:53.234Z,88.01
2023-03-05T01:04:21.047Z,88.02
2023-03-05T01:06:48.838Z,88.12
2023-03-05T01:09:17.990Z,87.67
2023-03-05T01:11:45.734Z,87.82
2023-03-05T01:14:13.712Z,88.11
2023-03-05T01:16:41.515Z,88.00
2023-03-05T01:19:09.562Z,88.07
2023-03-05T01:21:38.051Z,88.04
2023-03-05T01:24:06.970Z,88.17
2023-03-05T01:26:36.158Z,87.87
2023-03-05T01:29:04.021Z,87.94
2023-03-05T01:31:31.858Z,88.35
2023-03-05T01:34:00.210Z,88.58
2023-03-05T01:36:28.095Z,88.61
2023-03-05T01:38:55.840Z,88.38
2023-03-05T01:41:23.587Z,88.72
2023-03-05T01:43:53.273Z,88.71
2023-03-05T01:46:32.585Z,89.07
2023-03-05T01:49:05.441Z,88.53
2023-03-05T01:51:38.334Z,88.87
2023-03-05T01:54:08.497Z,88.78
2023-03-05T01:56:36.982Z,89.26
2023-03-05T01:59:06.148Z,89.28
2023-03-05T02:01:37.851Z,89.44
2023-03-05T02:04:06.404Z,89.24
2023-03-05T02:06:34.931Z,89.81
2023-03-05T02:09:02.721Z,90.07
2023-03-05T02:11:30.903Z,90.08
2023-03-05T02:13:59.221Z,90.34
2023-03-05T02:16:35.798Z,89.91
2023-03-05T02:19:04.176Z,90.56
2023-03-05T02:21:39.774Z,90.76
2023-03-05T02:24:08.066Z,90.81
2023-03-05T02:26:35.804Z,90.56
2023-03-05T02:29:06.478Z,90.44
2023-03-05T02:31:34.310Z,90.40
2023-03-05T02:34:02.117Z,91.33
2023-03-05T02:36:29.864Z,91.02
2023-03-05T02:38:59.248Z,91.33
2023-03-05T02:41:27.693Z,91.28
2023-03-05T02:43:55.509Z,91.67
2023-03-05T02:46:23.284Z,91.89
2023-03-05T02:48:51.026Z,91.34
2023-03-05T02:51:19.103Z,91.24
2023-03-05T02:53:46.843Z,91.20
2023-03-05T02:56:15.939Z,91.35
2023-03-05T02:58:43.829Z,91.58
2023-03-05T03:01:11.660Z,91.36
2023-03-05T03:03:39.504Z,91.13
2023-03-05T03:06:08.308Z,91.40
2023-03-05T03:08:36.115Z,91.39
2023-03-05T03:11:08.908Z,91.44
2023-03-05T03:13:38.049Z,91.43
2023-03-05T03:16:07.646Z,90.84
2023-03-05T03:18:35.448Z,90.77
2023-03-05T03:21:03.710Z,91.06
2023-03-05T03:23:32.141Z,91.14
2023-03-05T03:25:59.966Z,91.20
2023-03-05T03:28:27.686Z,90.84
2023-03-05T03:30:56.830Z,91.42
2023-03-05T03:33:24.647Z,91.29
2023-03-05T03:35:52.412Z,91.53
2023-03-05T03:38:20.177Z,91.43
2023-03-05T03:40:47.912Z,91.60
2023-03-05T03:43:15.644Z,91.85
2023-03-05T03:45:43.749Z,92.30
2023-03-05T03:48:12.889Z,92.58
2023-03-05T03:50:41.102Z,92.76
2023-03-05T03:53:09.828Z,93.07
2023-03-05T03:55:37.553Z,93.34
2023-03-05T03:58:08.004Z,93.54
2023-03-05T04:00:36.012Z,93.41
2023-03-05T04:03:03.772Z,93.74
2023-03-05T04:05:32.976Z,94.46
2023-03-05T04:08:01.452Z,94.53
2023-03-05T04:10:29.198Z,96.63
2023-03-05T04:12:56.870Z,97.62
2023-03-05T04:15:25.030Z,99.62
2023-03-05T04:17:52.913Z,100.00
2023-03-05T04:20:20.714Z,100.00
2023-03-05T04:22:50.069Z,100.00
2023-03-05T04:25:18.062Z,100.00
2023-03-05T04:27:45.749Z,100.00
2023-03-05T04:30:15.587Z,100.00
2023-03-05T04:32:43.374Z,100.00
2023-03-05T04:35:11.308Z,100.00
2023-03-05T04:37:39.099Z,100.00
2023-03-05T04:40:09.653Z,100.00
2023-03-05T04:42:37.384Z,100.00
2023-03-05T04:45:06.717Z,100.00
2023-03-05T04:47:35.406Z,100.00
2023-03-05T04:50:03.855Z,100.00
2023-03-05T04:52:31.689Z,100.00
2023-03-05T04:54:59.761Z,100.00
2023-03-05T04:57:28.820Z,100.00
2023-03-05T04:59:56.779Z,100.00
2023-03-05T05:02:24.516Z,100.00
2023-03-05T05:04:54.048Z,100.00
2023-03-05T05:07:21.914Z,100.00
2023-03-05T05:09:49.665Z,100.00
2023-03-05T05:12:17.348Z,100.00
2023-03-05T05:14:46.436Z,100.00
2023-03-05T05:17:15.840Z,100.00
2023-03-05T05:19:43.593Z,100.00
2023-03-05T05:22:11.317Z,100.00
2023-03-05T05:24:39.043Z,100.00
2023-03-05T05:27:07.231Z,100.00
2023-03-05T05:29:35.004Z,100.00
2023-03-05T05:32:07.399Z,100.00
2023-03-05T05:34:35.207Z,100.00
2023-03-05T05:37:03.133Z,100.00
2023-03-05T05:39:30.828Z,100.00
2023-03-05T05:41:58.561Z,100.00
2023-03-05T05:44:26.349Z,100.00
2023-03-05T05:46:54.108Z,100.00
2023-03-05T05:49:23.242Z,100.00
2023-03-05T05:51:51.022Z,100.00
2023-03-05T05:54:18.742Z,100.00
2023-03-05T05:56:46.485Z,100.00
2023-03-05T05:59:14.256Z,100.00
2023-03-05T06:01:42.151Z,100.00
2023-03-05T06:04:09.963Z,100.00
2023-03-05T06:06:39.067Z,100.00
2023-03-05T06:09:06.943Z,100.00
2023-03-05T06:11:35.087Z,100.00
2023-03-05T06:14:03.749Z,100.00
2023-03-05T06:16:32.020Z,100.00
2023-03-05T06:19:00.120Z,100.00
2023-03-05T06:21:27.849Z,100.00
2023-03-05T06:23:58.727Z,100.00
2023-03-05T06:26:27.264Z,100.00
2023-03-05T06:28:55.358Z,100.00
2023-03-05T06:31:26.358Z,100.00
2023-03-05T06:33:56.229Z,100.00
2023-03-05T06:36:25.791Z,99.80
2023-03-05T06:38:54.618Z,100.00
2023-03-05T06:41:25.598Z,99.79
2023-03-05T06:43:53.523Z,100.00
2023-03-05T06:46:23.680Z,100.00
2023-03-05T06:48:52.145Z,100.00
2023-03-05T06:51:22.828Z,100.00
2023-03-05T06:53:50.872Z,100.00
2023-03-05T06:56:19.315Z,100.00
2023-03-05T06:58:50.597Z,100.00
2023-03-05T07:01:18.903Z,100.00
2023-03-05T07:03:50.443Z,100.00
2023-03-05T07:06:18.494Z,100.00
2023-03-05T07:08:46.214Z,100.00
2023-03-05T07:11:15.483Z,100.00
2023-03-05T07:13:44.461Z,100.00
2023-03-05T07:16:17.139Z,100.00
2023-03-05T07:18:45.021Z,100.00
2023-03-05T07:21:17.784Z,100.00
2023-03-05T07:23:45.591Z,100.00
2023-03-05T07:26:13.650Z,100.00
2023-03-05T07:28:42.091Z,100.00
2023-03-05T07:31:15.541Z,100.00
2023-03-05T07:33:43.389Z,100.00
2023-03-05T07:36:12.359Z,100.00
2023-03-05T07:38:40.177Z,100.00
2023-03-05T07:41:10.229Z,100.00
2023-03-05T07:43:38.400Z,100.00
2023-03-05T07:46:08.081Z,100.00
2023-03-05T07:48:37.516Z,100.00
2023-03-05T07:51:06.691Z,100.00
2023-03-05T07:53:34.494Z,100.00
2023-03-05T07:56:02.248Z,100.00
2023-03-05T07:58:30.157Z,100.00
2023-03-05T08:00:57.878Z,100.00
2023-03-05T08:03:25.716Z,100.00
2023-03-05T08:05:54.803Z,100.00
2023-03-05T08:08:22.641Z,100.00
2023-03-05T08:10:50.411Z,100.00
2023-03-05T08:13:18.161Z,100.00
2023-03-05T08:15:46.229Z,100.00
2023-03-05T08:18:15.533Z,100.00
2023-03-05T08:20:43.302Z,100.00
2023-03-05T08:23:12.451Z,100.00
2023-03-05T08:25:40.238Z,100.00
2023-03-05T08:28:08.026Z,100.00
2023-03-05T08:30:35.782Z,100.00
2023-03-05T08:33:03.555Z,100.00
2023-03-05T08:35:31.465Z,100.00
2023-03-05T08:37:59.204Z,100.00
2023-03-05T08:40:28.380Z,100.00
2023-03-05T08:42:56.153Z,100.00
2023-03-05T08:45:24.675Z,100.00
2023-03-05T08:47:52.374Z,100.00
2023-03-05T08:50:22.273Z,100.00
2023-03-05T08:52:50.190Z,100.00
2023-03-05T08:55:18.010Z,100.00
2023-03-05T08:57:47.099Z,100.00
2023-03-05T09:00:15.698Z,100.00
2023-03-05T09:02:43.460Z,100.00
2023-03-05T09:05:11.796Z,100.00
2023-03-05T09:07:39.536Z,100.00
2023-03-05T09:10:10.325Z,100.00
2023-03-05T09:12:38.258Z,100.00
2023-03-05T09:15:09.923Z,100.00
2023-03-05T09:17:38.300Z,100.00
2023-03-05T09:20:08.239Z,100.00
2023-03-05T09:22:35.956Z,100.00
2023-03-05T09:25:03.802Z,100.00
2023-03-05T09:27:34.442Z,100.00
2023-03-05T09:30:02.258Z,100.00
2023-03-05T09:32:31.444Z,100.00
2023-03-05T09:34:59.546Z,99.42
2023-03-05T09:37:27.883Z,99.99
2023-03-05T09:39:55.622Z,100.00
2023-03-05T09:42:38.068Z,99.90
2023-03-05T09:45:19.056Z,98.64
2023-03-05T09:47:54.822Z,99.08
2023-03-05T09:50:37.448Z,99.99
2023-03-05T09:53:15.995Z,99.55
2023-03-05T09:55:46.928Z,98.94
2023-03-05T09:58:19.048Z,98.94
2023-03-05T10:00:49.751Z,98.87
2023-03-05T10:03:24.040Z,98.51
2023-03-05T10:06:03.013Z,98.59
2023-03-05T10:08:40.808Z,98.39
2023-03-05T10:11:20.065Z,98.73
2023-03-05T10:13:48.759Z,97.54
2023-03-05T10:16:46.348Z,97.94
2023-03-05T10:19:22.426Z,96.11
2023-03-05T10:21:54.664Z,95.68
2023-03-05T10:24:33.076Z,96.54
2023-03-05T10:27:03.774Z,97.24
2023-03-05T10:29:56.134Z,96.75
2023-03-05T10:32:37.238Z,96.67
2023-03-05T10:35:20.798Z,97.09
2023-03-05T10:38:11.147Z,97.55
2023-03-05T10:40:45.855Z,98.39
2023-03-05T10:43:25.105Z,98.60
2023-03-05T10:45:54.627Z,99.15
2023-03-05T10:48:29.913Z,99.12
2023-03-05T10:51:03.937Z,99.47
2023-03-05T10:53:36.216Z,98.78
2023-03-05T10:56:05.561Z,99.00
2023-03-05T10:58:33.805Z,98.92
2023-03-05T11:01:05.837Z,99.90
2023-03-05T11:03:49.880Z,99.75
2023-03-05T11:06:28.829Z,100.00
2023-03-05T11:08:57.380Z,100.00
2023-03-05T11:11:25.168Z,100.00
2023-03-05T11:13:56.205Z,99.97
2023-03-05T11:16:26.594Z,100.00
2023-03-05T11:19:17.726Z,100.00
2023-03-05T11:21:48.771Z,100.00
2023-03-05T11:24:19.114Z,100.00
2023-03-05T11:26:50.574Z,99.61
2023-03-05T11:29:21.829Z,99.85
2023-03-05T11:31:50.283Z,98.57
2023-03-05T11:34:30.266Z,97.94
2023-03-05T11:37:06.289Z,96.78
2023-03-05T11:39:38.414Z,89.76
2023-03-05T11:42:11.626Z,91.69
2023-03-05T11:44:48.182Z,91.10
2023-03-05T11:47:27.268Z,89.36
2023-03-05T11:50:00.032Z,89.50
2023-03-05T11:52:33.432Z,89.44
2023-03-05T11:55:06.960Z,85.16
2023-03-05T11:57:43.326Z,85.80
2023-03-05T12:00:16.232Z,85.00
2023-03-05T12:02:44.236Z,87.64
2023-03-05T12:05:15.818Z,88.95
2023-03-05T12:07:49.875Z,89.61
2023-03-05T12:10:21.490Z,90.44
2023-03-05T12:12:58.696Z,89.90
2023-03-05T12:15:56.619Z,85.84
2023-03-05T12:18:34.927Z,86.24
2023-03-05T12:21:08.976Z,82.25
2023-03-05T12:23:49.950Z,81.22
2023-03-05T12:26:17.907Z,81.91
2023-03-05T12:28:59.115Z,82.10
2023-03-05T12:31:37.946Z,78.94
2023-03-05T12:34:57.469Z,81.24
2023-03-05T12:37:59.720Z,76.84
2023-03-05T12:40:30.257Z,79.63
2023-03-05T12:42:59.936Z,78.38
2023-03-05T12:45:36.178Z,79.83
2023-03-05T12:48:45.988Z,80.10
2023-03-05T12:51:37.762Z,80.54
2023-03-05T12:54:28.160Z,79.62
2023-03-05T12:56:59.402Z,80.25
2023-03-05T12:59:35.761Z,79.64
2023-03-05T13:02:16.858Z,76.98
2023-03-05T13:04:46.916Z,78.99
2023-03-05T13:07:17.313Z,78.65
2023-03-05T13:09:54.353Z,78.53
2023-03-05T13:12:25.163Z,78.80
2023-03-05T13:15:00.553Z,79.40
2023-03-05T13:17:41.095Z,79.13
2023-03-05T13:20:33.919Z,78.55
2023-03-05T13:23:17.028Z,78.58
2023-03-05T13:25:45.891Z,78.22
2023-03-05T13:28:16.760Z,78.01
2023-03-05T13:30:46.954Z,77.22
2023-03-05T13:33:18.582Z,74.10
2023-03-05T13:35:47.413Z,74.63
2023-03-05T13:38:25.520Z,71.51
2023-03-05T13:41:04.753Z,75.25
2023-03-05T13:43:34.611Z,76.14
2023-03-05T13:46:02.486Z,76.52
2023-03-05T13:48:30.272Z,75.41
2023-03-05T13:50:59.502Z,75.13
2023-03-05T13:53:29.036Z,75.69
2023-03-05T13:55:59.631Z,74.86
2023-03-05T13:58:52.287Z,74.55
2023-03-05T14:01:31.815Z,75.00
2023-03-05T14:04:09.862Z,74.05
2023-03-05T14:06:43.141Z,74.15
2023-03-05T14:09:21.167Z,73.61
2023-03-05T14:12:04.210Z,73.92
2023-03-05T14:14:37.717Z,71.81
2023-03-05T14:17:37.474Z,73.68
2023-03-05T14:20:23.702Z,73.38
2023-03-05T14:22:53.118Z,73.99
2023-03-05T14:25:37.123Z,73.39
2023-03-05T14:28:09.858Z,68.23
2023-03-05T14:30:39.035Z,69.16
2023-03-05T14:33:06.982Z,69.07
2023-03-05T14:35:35.815Z,68.40
2023-03-05T14:38:04.093Z,70.16
2023-03-05T14:40:33.101Z,69.01
2023-03-05T14:43:01.566Z,69.21
2023-03-05T14:45:34.259Z,70.68
2023-03-05T14:48:05.251Z,69.55
2023-03-05T14:50:36.151Z,69.39
2023-03-05T14:53:07.767Z,69.44
2023-03-05T14:55:38.236Z,70.42
2023-03-05T14:58:12.324Z,70.28
2023-03-05T15:00:40.219Z,71.08
2023-03-05T15:03:11.704Z,71.58
2023-03-05T15:05:40.126Z,71.64
2023-03-05T15:08:14.751Z,71.63
2023-03-05T15:10:45.071Z,71.85
2023-03-05T15:13:15.307Z,72.36
2023-03-05T15:15:44.135Z,72.52
2023-03-05T15:18:14.382Z,71.42
2023-03-05T15:20:42.171Z,71.52
2023-03-05T15:23:10.524Z,71.98
2023-03-05T15:25:38.365Z,71.87
2023-03-05T15:28:06.322Z,71.88
2023-03-05T15:30:36.641Z,71.53
2023-03-05T15:33:07.070Z,71.16
2023-03-05T15:35:36.379Z,70.82
2023-03-05T15:38:04.519Z,70.83
2023-03-05T15:40:32.622Z,71.89
2023-03-05T15:43:01.092Z,71.52
2023-03-05T15:45:31.254Z,70.74
2023-03-05T15:47:59.112Z,71.33
2023-03-05T15:50:26.976Z,69.25
2023-03-05T15:52:56.370Z,69.52
2023-03-05T15:55:24.237Z,70.41
2023-03-05T15:57:53.742Z,70.75
2023-03-05T16:00:26.094Z,71.59
2023-03-05T16:02:54.103Z,71.21
2023-03-05T16:05:21.999Z,71.60
2023-03-05T16:07:52.214Z,71.67
2023-03-05T16:10:24.096Z,71.77
2023-03-05T16:12:55.483Z,71.81
2023-03-05T16:15:23.982Z,72.70
2023-03-05T16:17:55.413Z,72.89
2023-03-05T16:20:23.646Z,72.84
2023-03-05T16:22:51.522Z,74.79
2023-03-05T16:25:19.545Z,75.29
2023-03-05T16:27:48.749Z,76.58
2023-03-05T16:30:17.591Z,76.99
2023-03-05T16:32:45.388Z,77.35
2023-03-05T16:35:13.542Z,77.63
2023-03-05T16:37:42.441Z,77.76
2023-03-05T16:40:12.190Z,78.36
2023-03-05T16:42:40.123Z,78.26
2023-03-05T16:45:11.451Z,78.01
2023-03-05T16:47:39.607Z,78.24
2023-03-05T16:50:09.104Z,78.64
2023-03-05T16:52:37.530Z,78.41
2023-03-05T16:55:06.227Z,78.40
2023-03-05T16:57:33.985Z,79.21
2023-03-05T17:00:04.064Z,79.10
2023-03-05T17:02:33.715Z,80.09
2023-03-05T17:05:01.813Z,80.52
2023-03-05T17:07:29.560Z,79.76
2023-03-05T17:09:57.601Z,80.69
2023-03-05T17:12:25.337Z,80.78
2023-03-05T17:14:53.127Z,80.88
2023-03-05T17:17:20.947Z,80.52
2023-03-05T17:19:50.113Z,80.95
2023-03-05T17:22:17.885Z,80.82
2023-03-05T17:24:47.283Z,80.48
2023-03-05T17:27:18.796Z,80.96
2023-03-05T17:29:46.556Z,81.61
2023-03-05T17:32:14.840Z,81.39
2023-03-05T17:34:43.367Z,81.78
2023-03-05T17:37:12.692Z,81.69
2023-03-05T17:39:40.676Z,81.00
2023-03-05T17:42:08.594Z,81.32
2023-03-05T17:44:36.507Z,81.15
2023-03-05T17:47:04.611Z,81.42
2023-03-05T17:49:32.360Z,80.87
2023-03-05T17:52:00.277Z,80.60
2023-03-05T17:54:29.457Z,80.61
2023-03-05T17:56:58.254Z,80.89
2023-03-05T17:59:26.678Z,80.57
2023-03-05T18:01:54.436Z,80.19
2023-03-05T18:04:22.199Z,80.35
2023-03-05T18:06:50.036Z,80.33
2023-03-05T18:09:17.787Z,80.79
2023-03-05T18:11:46.909Z,81.01
2023-03-05T18:14:16.863Z,81.16
2023-03-05T18:16:45.220Z,81.44
2023-03-05T18:19:13.029Z,81.57
2023-03-05T18:21:41.580Z,81.60
2023-03-05T18:24:10.213Z,81.49
2023-03-05T18:26:38.026Z,81.71
2023-03-05T18:29:07.170Z,82.19
2023-03-05T18:31:34.985Z,82.51
2023-03-05T18:34:02.733Z,82.73
2023-03-05T18:36:30.574Z,82.66
2023-03-05T18:38:58.328Z,83.57
2023-03-05T18:41:28.100Z,83.76
2023-03-05T18:43:56.421Z,83.69
2023-03-05T18:46:25.790Z,84.23
2023-03-05T18:48:53.609Z,84.05
2023-03-05T18:51:22.769Z,84.48
2023-03-05T18:53:51.894Z,84.94
2023-03-05T18:56:19.751Z,85.09
2023-03-05T18:58:48.796Z,85.51
2023-03-05T19:01:17.563Z,85.57
2023-03-05T19:03:47.194Z,85.76
2023-03-05T19:06:16.023Z,85.13
2023-03-05T19:08:43.826Z,85.71
2023-03-05T19:11:16.728Z,85.58
2023-03-05T19:13:49.061Z,86.01
2023-03-05T19:16:18.984Z,86.19
2023-03-05T19:18:57.358Z,86.13
2023-03-05T19:21:25.689Z,86.31
2023-03-05T19:23:53.571Z,86.41
2023-03-05T19:26:21.373Z,85.75
2023-03-05T19:28:49.332Z,85.70
2023-03-05T19:31:17.378Z,86.17
2023-03-05T19:33:45.180Z,86.38
2023-03-05T19:36:14.490Z,86.50
2023-03-05T19:38:43.220Z,86.22
2023-03-05T19:41:12.933Z,86.03
2023-03-05T19:43:41.031Z,86.48
2023-03-05T19:46:09.782Z,86.13
2023-03-05T19:48:39.252Z,86.30
2023-03-05T19:51:10.248Z,85.83
2023-03-05T19:53:39.588Z,86.59
2023-03-05T19:56:08.787Z,85.80
2023-03-05T19:58:37.675Z,85.95
2023-03-05T20:01:09.543Z,85.85
2023-03-05T20:03:38.350Z,85.96
2023-03-05T20:06:06.540Z,86.19
2023-03-05T20:08:34.578Z,86.26
2023-03-05T20:11:04.189Z,86.17
2023-03-05T20:13:32.043Z,85.99
2023-03-05T20:15:59.906Z,86.24
2023-03-05T20:18:27.787Z,86.25
2023-03-05T20:20:57.971Z,86.29
2023-03-05T20:23:25.820Z,86.22
2023-03-05T20:25:53.644Z,86.18
2023-03-05T20:28:26.145Z,86.69
2023-03-05T20:30:57.656Z,86.54
2023-03-05T20:33:26.182Z,86.75
2023-03-05T20:35:56.240Z,86.90
2023-03-05T20:38:26.072Z,86.63
2023-03-05T20:40:56.033Z,86.72
2023-03-05T20:43:26.221Z,87.28
2023-03-05T20:45:55.200Z,86.70
2023-03-05T20:48:22.914Z,86.94
2023-03-05T20:50:50.802Z,87.04
2023-03-05T20:53:19.125Z,87.00
2023-03-05T20:55:47.361Z,86.74
2023-03-05T20:58:15.154Z,86.89
2023-03-05T21:00:44.329Z,86.77
2023-03-05T21:03:12.732Z,87.28
2023-03-05T21:05:40.622Z,87.42
2023-03-05T21:08:08.461Z,87.32
2023-03-05T21:10:36.378Z,87.54
2023-03-05T21:13:04.175Z,87.58
2023-03-05T21:15:32.101Z,87.48
2023-03-05T21:18:01.276Z,87.56
2023-03-05T21:20:30.926Z,87.40
2023-03-05T21:22:59.284Z,87.20
2023-03-05T21:25:28.965Z,87.18
2023-03-05T21:27:59.096Z,87.38
2023-03-05T21:30:31.936Z,86.60
2023-03-05T21:33:01.292Z,86.82
2023-03-05T21:35:29.502Z,87.07
2023-03-05T21:37:57.290Z,86.95
2023-03-05T21:40:25.193Z,86.82
2023-03-05T21:42:53.767Z,86.69
2023-03-05T21:45:24.250Z,86.87
2023-03-05T21:47:52.725Z,86.55
2023-03-05T21:50:22.479Z,86.82
2023-03-05T21:52:51.099Z,86.83
2023-03-05T21:55:22.557Z,87.36
2023-03-05T21:57:50.744Z,87.08
2023-03-05T22:00:22.690Z,87.18
2023-03-05T22:02:50.904Z,87.44
2023-03-05T22:05:18.953Z,87.28
2023-03-05T22:07:48.120Z,87.59
2023-03-05T22:10:17.988Z,87.51
2023-03-05T22:12:54.385Z,87.64
2023-03-05T22:15:22.708Z,87.25
2023-03-05T22:17:51.048Z,87.77
2023-03-05T22:20:19.694Z,88.27
2023-03-05T22:22:48.993Z,88.22
2023-03-05T22:25:17.319Z,87.96
2023-03-05T22:27:45.890Z,88.17
2023-03-05T22:30:14.875Z,88.23
2023-03-05T22:32:42.659Z,88.54
2023-03-05T22:35:13.320Z,88.53
2023-03-05T22:37:41.476Z,88.71
2023-03-05T22:40:14.561Z,89.02
2023-03-05T22:42:42.400Z,89.14
2023-03-05T22:45:11.086Z,89.21
2023-03-05T22:47:39.116Z,89.28
2023-03-05T22:50:08.236Z,89.69
2023-03-05T22:52:36.128Z,89.63
2023-03-05T22:55:04.638Z,90.11
2023-03-05T22:57:34.780Z,89.83
2023-03-05T23:00:02.591Z,90.02
2023-03-05T23:02:30.416Z,90.35
2023-03-05T23:05:00.458Z,90.29
2023-03-05T23:07:30.485Z,90.57
2023-03-05T23:09:59.749Z,90.41
2023-03-05T23:12:29.540Z,90.82
2023-03-05T23:15:00.212Z,91.10
2023-03-05T23:17:28.137Z,91.27
2023-03-05T23:19:56.159Z,91.53
2023-03-05T23:22:24.009Z,91.31
2023-03-05T23:24:51.858Z,91.79
2023-03-05T23:27:20.783Z,91.76
2023-03-05T23:29:58.829Z,91.49
2023-03-05T23:32:30.413Z,91.93
2023-03-05T23:34:58.235Z,91.72
2023-03-05T23:37:26.014Z,91.63
2023-03-05T23:39:53.756Z,91.71
2023-03-05T23:42:21.537Z,92.12
2023-03-05T23:44:49.362Z,91.63
2023-03-05T23:47:17.083Z,92.15
2023-03-05T23:49:46.284Z,91.96
2023-03-05T23:52:14.048Z,91.64
2023-03-05T23:54:41.806Z,91.70
2023-03-05T23:57:09.546Z,92.21
2023-03-05T23:59:37.441Z,92.28
